createdAt,value
2023-10-19T00:01:11.364Z,60.22
2023-10-19T00:03:38.488Z,60.47
2023-10-19T00:06:06.403Z,60.77
2023-10-19T00:08:45.171Z,60.83
2023-10-19T00:11:22.582Z,61.11
2023-10-19T00:13:55.066Z,60.97
2023-10-19T00:16:29.991Z,61.16
2023-10-19T00:19:00.435Z,61.21
2023-10-19T00:21:29.525Z,61.08
2023-10-19T00:23:58.739Z,61.12
2023-10-19T00:26:26.793Z,60.97
2023-10-19T00:28:56.716Z,61.33
2023-10-19T00:31:24.297Z,61.31
2023-10-19T00:33:55.518Z,61.42
2023-10-19T00:36:23.529Z,61.69
2023-10-19T00:38:51.632Z,61.96
2023-10-19T00:41:30.304Z,61.74
2023-10-19T00:44:13.108Z,61.85
2023-10-19T00:46:43.224Z,62.05
2023-10-19T00:49:14.729Z,62.31
2023-10-19T00:51:55.066Z,62.17
2023-10-19T00:54:34.559Z,62.32
2023-10-19T00:57:11.636Z,62.56
2023-10-19T01:00:01.126Z,62.58
2023-10-19T01:02:27.586Z,63.03
2023-10-19T01:05:02.212Z,62.85
2023-10-19T01:07:30.352Z,62.96
2023-10-19T01:10:00.266Z,63.01
2023-10-19T01:12:33.973Z,63.16
2023-10-19T01:15:08.804Z,63.12
2023-10-19T01:17:40.219Z,63.30
2023-10-19T01:20:18.528Z,63.67
2023-10-19T01:23:15.545Z,63.15
2023-10-19T01:25:55.122Z,63.71
2023-10-19T01:28:39.783Z,64.14
2023-10-19T01:31:08.830Z,64.18
2023-10-19T01:33:36.028Z,64.29
2023-10-19T01:36:12.814Z,64.68
2023-10-19T01:38:40.068Z,64.72
2023-10-19T01:41:14.406Z,64.86
2023-10-19T01:43:44.903Z,65.11
2023-10-19T01:46:13.244Z,65.07
2023-10-19T01:48:44.761Z,65.08
2023-10-19T01:51:13.582Z,65.19
2023-10-19T01:53:41.020Z,65.55
2023-10-19T01:56:10.695Z,65.67
2023-10-19T01:58:38.326Z,65.40
2023-10-19T02:01:14.605Z,65.74
2023-10-19T02:03:44.606Z,65.45
2023-10-19T02:06:19.031Z,65.71
2023-10-19T02:08:57.552Z,65.73
2023-10-19T02:11:25.331Z,65.98
2023-10-19T02:13:55.303Z,65.88
2023-10-19T02:16:26.616Z,66.20
2023-10-19T02:18:53.250Z,66.47
2023-10-19T02:21:33.611Z,66.52
2023-10-19T02:24:00.264Z,66.38
2023-10-19T02:26:31.769Z,66.45
2023-10-19T02:28:59.415Z,66.68
2023-10-19T02:31:26.690Z,66.78
2023-10-19T02:34:01.126Z,66.75
2023-10-19T02:36:31.794Z,66.70
2023-10-19T02:39:09.123Z,66.79
2023-10-19T02:41:47.855Z,66.60
2023-10-19T02:44:19.329Z,66.63
2023-10-19T02:46:47.179Z,66.88
2023-10-19T02:49:15.819Z,66.83
2023-10-19T02:51:46.414Z,67.14
2023-10-19T02:54:21.553Z,66.99
2023-10-19T02:56:50.577Z,67.03
2023-10-19T02:59:17.874Z,67.44
2023-10-19T03:01:47.666Z,67.48
2023-10-19T03:04:14.104Z,67.39
2023-10-19T03:06:42.021Z,67.49
2023-10-19T03:09:30.923Z,67.56
2023-10-19T03:12:01.400Z,67.51
2023-10-19T03:14:28.352Z,67.79
2023-10-19T03:16:58.589Z,67.63
2023-10-19T03:19:26.519Z,67.74
2023-10-19T03:21:53.588Z,67.91
2023-10-19T03:24:41.865Z,68.00
2023-10-19T03:27:22.940Z,67.89
2023-10-19T03:29:56.989Z,68.15
2023-10-19T03:32:28.270Z,68.07
2023-10-19T03:35:01.317Z,68.18
2023-10-19T03:37:31.989Z,68.25
2023-10-19T03:39:59.404Z,68.33
2023-10-19T03:42:33.393Z,68.33
2023-10-19T03:45:03.209Z,68.32
2023-10-19T03:47:36.443Z,68.49
2023-10-19T03:50:07.854Z,68.30
2023-10-19T03:52:40.642Z,68.18
2023-10-19T03:55:12.474Z,68.39
2023-10-19T03:57:43.157Z,68.05
2023-10-19T04:00:16.738Z,68.25
2023-10-19T04:02:43.863Z,68.40
2023-10-19T04:05:15.476Z,68.43
2023-10-19T04:07:44.907Z,68.58
2023-10-19T04:10:30.650Z,68.66
2023-10-19T04:13:00.845Z,68.56
2023-10-19T04:15:27.924Z,68.40
2023-10-19T04:17:56.332Z,68.39
2023-10-19T04:20:23.239Z,68.46
2023-10-19T04:22:51.990Z,68.54
2023-10-19T04:25:30.554Z,68.40
2023-10-19T04:27:58.540Z,68.35
2023-10-19T04:30:28.500Z,68.47
2023-10-19T04:32:58.703Z,68.45
2023-10-19T04:35:25.570Z,68.52
2023-10-19T04:37:53.699Z,68.41
2023-10-19T04:40:22.273Z,68.42
2023-10-19T04:42:52.233Z,68.53
2023-10-19T04:45:19.056Z,68.68
2023-10-19T04:47:45.607Z,68.94
2023-10-19T04:50:12.151Z,68.80
2023-10-19T04:52:39.875Z,68.99
2023-10-19T04:55:06.798Z,68.83
2023-10-19T04:57:33.362Z,68.89
2023-10-19T04:59:59.716Z,68.89
2023-10-19T05:02:26.245Z,68.86
2023-10-19T05:04:52.712Z,69.16
2023-10-19T05:07:19.212Z,69.04
2023-10-19T05:09:46.602Z,69.17
2023-10-19T05:12:15.474Z,69.15
2023-10-19T05:14:43.136Z,69.08
2023-10-19T05:17:10.393Z,69.30
2023-10-19T05:19:38.699Z,69.22
2023-10-19T05:22:07.637Z,69.13
2023-10-19T05:24:34.134Z,69.14
2023-10-19T05:27:00.698Z,69.37
2023-10-19T05:29:27.247Z,69.50
2023-10-19T05:31:59.172Z,69.60
2023-10-19T05:34:27.888Z,69.52
2023-10-19T05:36:55.256Z,69.47
2023-10-19T05:39:21.988Z,69.42
2023-10-19T05:41:48.406Z,69.37
2023-10-19T05:44:14.793Z,69.16
2023-10-19T05:46:42.301Z,69.19
2023-10-19T05:49:09.131Z,69.32
2023-10-19T05:51:35.611Z,69.52
2023-10-19T05:54:04.816Z,69.30
2023-10-19T05:56:32.365Z,69.29
2023-10-19T05:58:59.314Z,69.36
2023-10-19T06:01:26.026Z,69.17
2023-10-19T06:03:53.099Z,69.43
2023-10-19T06:06:23.566Z,69.18
2023-10-19T06:08:54.507Z,69.15
2023-10-19T06:11:22.386Z,69.26
2023-10-19T06:13:49.065Z,69.31
2023-10-19T06:16:15.695Z,68.78
2023-10-19T06:18:44.428Z,69.05
2023-10-19T06:21:11.198Z,69.07
2023-10-19T06:23:38.113Z,69.42
2023-10-19T06:26:12.966Z,69.08
2023-10-19T06:28:41.888Z,69.14
2023-10-19T06:31:08.520Z,69.31
2023-10-19T06:33:35.155Z,69.31
2023-10-19T06:36:04.216Z,69.60
2023-10-19T06:38:32.459Z,69.33
2023-10-19T06:40:59.938Z,69.38
2023-10-19T06:43:31.077Z,69.49
2023-10-19T06:46:01.480Z,69.22
2023-10-19T06:48:27.992Z,69.33
2023-10-19T06:50:54.357Z,69.45
2023-10-19T06:53:20.769Z,69.54
2023-10-19T06:55:47.273Z,70.17
2023-10-19T06:58:15.678Z,69.78
2023-10-19T07:00:48.073Z,69.71
2023-10-19T07:03:14.856Z,69.92
2023-10-19T07:05:41.371Z,69.87
2023-10-19T07:08:08.157Z,69.54
2023-10-19T07:10:35.925Z,69.94
2023-10-19T07:13:03.045Z,70.07
2023-10-19T07:15:31.090Z,70.12
2023-10-19T07:17:57.940Z,69.99
2023-10-19T07:20:32.786Z,70.00
2023-10-19T07:23:04.571Z,69.91
2023-10-19T07:25:32.376Z,69.72
2023-10-19T07:28:00.992Z,69.76
2023-10-19T07:30:27.881Z,69.46
2023-10-19T07:33:00.044Z,69.70
2023-10-19T07:35:28.128Z,69.55
2023-10-19T07:37:56.601Z,69.44
2023-10-19T07:40:24.959Z,69.77
2023-10-19T07:42:55.099Z,69.39
2023-10-19T07:45:22.636Z,69.41
2023-10-19T07:47:49.187Z,69.56
2023-10-19T07:50:18.705Z,69.62
2023-10-19T07:52:48.285Z,69.46
2023-10-19T07:55:15.170Z,69.67
2023-10-19T07:57:45.172Z,70.10
2023-10-19T08:00:15.147Z,69.76
2023-10-19T08:02:46.877Z,69.64
2023-10-19T08:05:19.555Z,69.71
2023-10-19T08:07:48.205Z,69.54
2023-10-19T08:10:16.807Z,69.60
2023-10-19T08:12:44.885Z,69.27
2023-10-19T08:15:12.662Z,69.04
2023-10-19T08:17:40.668Z,69.18
2023-10-19T08:20:17.246Z,69.11
2023-10-19T08:22:49.630Z,68.89
2023-10-19T08:25:16.241Z,68.72
2023-10-19T08:27:45.959Z,68.73
2023-10-19T08:30:14.215Z,68.95
2023-10-19T08:32:42.806Z,68.72
2023-10-19T08:35:12.956Z,68.90
2023-10-19T08:37:43.231Z,68.72
2023-10-19T08:40:16.637Z,68.76
2023-10-19T08:42:44.097Z,68.60
2023-10-19T08:45:13.772Z,68.84
2023-10-19T08:47:58.322Z,68.47
2023-10-19T08:50:26.168Z,68.42
2023-10-19T08:52:58.014Z,68.34
2023-10-19T08:55:37.390Z,68.37
2023-10-19T08:58:11.439Z,68.50
2023-10-19T09:00:49.658Z,68.32
2023-10-19T09:03:18.278Z,68.44
2023-10-19T09:05:47.361Z,68.42
2023-10-19T09:08:19.009Z,68.49
2023-10-19T09:10:47.329Z,68.22
2023-10-19T09:13:15.694Z,68.18
2023-10-19T09:15:42.824Z,67.83
2023-10-19T09:18:19.592Z,67.90
2023-10-19T09:20:54.050Z,67.81
2023-10-19T09:23:26.135Z,67.69
2023-10-19T09:25:56.758Z,67.53
2023-10-19T09:28:25.000Z,67.68
2023-10-19T09:30:52.767Z,67.41
2023-10-19T09:33:19.395Z,67.18
2023-10-19T09:35:49.269Z,67.12
2023-10-19T09:38:17.194Z,67.19
2023-10-19T09:40:44.202Z,67.09
2023-10-19T09:43:17.375Z,66.95
2023-10-19T09:45:52.060Z,67.05
2023-10-19T09:48:20.474Z,66.83
2023-10-19T09:50:55.980Z,66.67
2023-10-19T09:53:26.408Z,66.68
2023-10-19T09:55:56.875Z,66.61
2023-10-19T09:58:27.074Z,66.51
2023-10-19T10:00:53.553Z,66.40
2023-10-19T10:03:45.521Z,66.42
2023-10-19T10:06:15.211Z,66.35
2023-10-19T10:08:46.223Z,66.02
2023-10-19T10:11:25.153Z,66.40
2023-10-19T10:13:52.585Z,66.26
2023-10-19T10:16:30.205Z,65.98
2023-10-19T10:19:01.272Z,65.96
2023-10-19T10:21:31.502Z,66.16
2023-10-19T10:24:00.507Z,66.21
2023-10-19T10:26:36.390Z,66.49
2023-10-19T10:29:10.774Z,66.10
2023-10-19T10:31:47.064Z,66.38
2023-10-19T10:34:39.260Z,66.62
2023-10-19T10:37:09.109Z,66.67
2023-10-19T10:39:39.683Z,66.04
2023-10-19T10:42:08.345Z,66.13
2023-10-19T10:44:48.329Z,66.13
2023-10-19T10:47:25.579Z,66.09
2023-10-19T10:49:57.899Z,65.41
2023-10-19T10:52:35.106Z,64.69
2023-10-19T10:55:12.734Z,64.38
2023-10-19T10:57:40.653Z,63.52
2023-10-19T11:00:17.301Z,63.25
2023-10-19T11:02:46.931Z,62.97
2023-10-19T11:05:14.984Z,62.72
2023-10-19T11:08:02.545Z,62.74
2023-10-19T11:10:30.416Z,62.33
2023-10-19T11:13:14.338Z,62.72
2023-10-19T11:15:50.042Z,62.86
2023-10-19T11:18:36.907Z,62.76
2023-10-19T11:21:08.095Z,62.42
2023-10-19T11:23:42.515Z,62.35
2023-10-19T11:26:11.516Z,61.86
2023-10-19T11:28:44.102Z,61.98
2023-10-19T11:31:24.800Z,61.96
2023-10-19T11:33:53.775Z,61.79
2023-10-19T11:36:23.147Z,61.81
2023-10-19T11:38:52.733Z,61.73
2023-10-19T11:41:19.515Z,61.65
2023-10-19T11:43:47.387Z,61.21
2023-10-19T11:46:15.750Z,61.40
2023-10-19T11:48:43.981Z,61.81
2023-10-19T11:51:12.032Z,61.91
2023-10-19T11:53:39.704Z,61.80
2023-10-19T11:56:08.267Z,61.73
2023-10-19T11:58:35.929Z,61.54
2023-10-19T12:01:17.778Z,61.28
2023-10-19T12:03:46.792Z,61.31
2023-10-19T12:06:19.898Z,61.31
2023-10-19T12:08:48.024Z,61.46
2023-10-19T12:11:20.609Z,61.10
2023-10-19T12:13:48.488Z,60.56
2023-10-19T12:16:21.059Z,60.78
2023-10-19T12:18:49.816Z,60.25
2023-10-19T12:21:18.796Z,60.03
2023-10-19T12:23:45.656Z,59.38
2023-10-19T12:26:12.354Z,59.12
2023-10-19T12:28:39.621Z,58.73
2023-10-19T12:31:10.074Z,58.28
2023-10-19T12:33:37.600Z,58.30
2023-10-19T12:36:23.024Z,58.44
2023-10-19T12:38:50.659Z,58.47
2023-10-19T12:41:18.341Z,58.72
2023-10-19T12:43:44.922Z,58.26
2023-10-19T12:46:13.178Z,57.00
2023-10-19T12:48:39.609Z,56.52
2023-10-19T12:51:10.159Z,55.19
2023-10-19T12:53:38.212Z,55.07
2023-10-19T12:56:04.791Z,55.46
2023-10-19T12:58:33.033Z,55.76
2023-10-19T13:00:59.595Z,55.48
2023-10-19T13:03:32.783Z,55.28
2023-10-19T13:05:59.427Z,54.74
2023-10-19T13:08:28.559Z,55.32
2023-10-19T13:11:01.539Z,55.35
2023-10-19T13:13:31.434Z,55.04
2023-10-19T13:15:58.136Z,54.98
2023-10-19T13:18:30.665Z,55.07
2023-10-19T13:20:58.022Z,55.03
2023-10-19T13:23:24.548Z,55.04
2023-10-19T13:25:51.827Z,55.38
2023-10-19T13:28:19.776Z,55.79
2023-10-19T13:30:56.674Z,56.11
2023-10-19T13:33:23.442Z,55.71
2023-10-19T13:35:50.004Z,55.76
2023-10-19T13:38:18.651Z,55.33
2023-10-19T13:40:47.785Z,55.55
2023-10-19T13:43:15.276Z,55.12
2023-10-19T13:45:46.044Z,55.38
2023-10-19T13:48:14.002Z,55.60
2023-10-19T13:50:51.000Z,55.49
2023-10-19T13:53:17.856Z,55.57
2023-10-19T13:55:45.344Z,55.53
2023-10-19T13:58:12.284Z,55.43
2023-10-19T14:00:42.003Z,55.71
2023-10-19T14:03:10.191Z,55.91
2023-10-19T14:05:41.067Z,55.79
2023-10-19T14:08:08.047Z,56.09
2023-10-19T14:10:35.918Z,56.39
2023-10-19T14:13:03.485Z,56.36
2023-10-19T14:15:30.023Z,56.43
2023-10-19T14:17:59.335Z,56.89
2023-10-19T14:20:26.215Z,56.88
2023-10-19T14:22:54.784Z,56.92
2023-10-19T14:25:25.645Z,57.36
2023-10-19T14:27:55.724Z,57.00
2023-10-19T14:30:26.671Z,57.20
2023-10-19T14:32:53.230Z,57.32
2023-10-19T14:35:21.357Z,57.51
2023-10-19T14:37:50.254Z,57.81
2023-10-19T14:40:22.041Z,58.28
2023-10-19T14:42:49.464Z,58.41
2023-10-19T14:45:17.986Z,58.46
2023-10-19T14:47:52.669Z,57.95
2023-10-19T14:50:20.443Z,58.03
2023-10-19T14:52:49.814Z,58.03
2023-10-19T14:55:16.902Z,57.82
2023-10-19T14:57:54.650Z,58.05
2023-10-19T15:00:35.023Z,58.29
2023-10-19T15:03:08.524Z,58.50
2023-10-19T15:05:38.912Z,58.37
2023-10-19T15:08:06.653Z,58.29
2023-10-19T15:10:33.651Z,58.41
2023-10-19T15:13:00.558Z,58.66
2023-10-19T15:15:28.162Z,58.58
2023-10-19T15:17:55.206Z,58.68
2023-10-19T15:20:26.208Z,58.65
2023-10-19T15:22:52.856Z,58.84
2023-10-19T15:25:21.236Z,58.71
2023-10-19T15:27:51.743Z,59.17
2023-10-19T15:30:21.203Z,59.28
2023-10-19T15:32:48.987Z,59.26
2023-10-19T15:35:17.332Z,59.40
2023-10-19T15:37:49.192Z,59.50
2023-10-19T15:40:17.439Z,59.83
2023-10-19T15:42:44.594Z,60.28
2023-10-19T15:45:15.131Z,60.56
2023-10-19T15:47:41.902Z,60.72
2023-10-19T15:50:09.568Z,61.06
2023-10-19T15:52:41.594Z,61.21
2023-10-19T15:55:08.342Z,61.44
2023-10-19T15:57:34.802Z,61.69
2023-10-19T16:00:01.318Z,62.08
2023-10-19T16:02:27.854Z,62.15
2023-10-19T16:04:54.418Z,62.17
2023-10-19T16:07:20.911Z,62.68
2023-10-19T16:09:47.337Z,63.04
2023-10-19T16:12:14.717Z,62.90
2023-10-19T16:14:41.435Z,63.50
2023-10-19T16:17:10.007Z,63.47
2023-10-19T16:19:36.677Z,63.64
2023-10-19T16:22:03.237Z,63.72
2023-10-19T16:24:30.346Z,63.92
2023-10-19T16:26:59.790Z,64.02
2023-10-19T16:29:27.277Z,64.31
2023-10-19T16:31:59.369Z,64.50
2023-10-19T16:34:26.337Z,64.67
2023-10-19T16:36:52.832Z,64.94
2023-10-19T16:39:19.297Z,64.81
2023-10-19T16:41:47.244Z,64.85
2023-10-19T16:44:13.950Z,64.88
2023-10-19T16:46:40.763Z,64.77
2023-10-19T16:49:07.321Z,64.72
2023-10-19T16:51:37.108Z,64.79
2023-10-19T16:54:04.701Z,64.43
2023-10-19T16:56:31.172Z,64.44
2023-10-19T16:58:57.602Z,64.47
2023-10-19T17:01:24.222Z,64.08
2023-10-19T17:03:50.730Z,64.21
2023-10-19T17:06:17.766Z,63.81
2023-10-19T17:08:45.783Z,64.24
2023-10-19T17:11:12.907Z,64.25
2023-10-19T17:13:40.284Z,64.43
2023-10-19T17:16:07.026Z,64.35
2023-10-19T17:18:34.967Z,65.11
2023-10-19T17:21:03.449Z,64.91
2023-10-19T17:23:30.171Z,65.03
2023-10-19T17:25:56.771Z,65.42
2023-10-19T17:28:23.152Z,65.34
2023-10-19T17:30:52.273Z,65.57
2023-10-19T17:33:19.338Z,65.54
2023-10-19T17:35:46.067Z,65.79
2023-10-19T17:38:13.953Z,65.92
2023-10-19T17:40:40.753Z,66.65
2023-10-19T17:43:10.489Z,66.67
2023-10-19T17:45:37.681Z,66.50
2023-10-19T17:48:05.122Z,66.39
2023-10-19T17:50:32.780Z,66.37
2023-10-19T17:53:01.782Z,66.40
2023-10-19T17:55:28.467Z,66.42
2023-10-19T17:57:55.059Z,66.82
2023-10-19T18:00:21.661Z,66.82
2023-10-19T18:02:49.107Z,66.52
2023-10-19T18:05:15.955Z,66.56
2023-10-19T18:07:42.682Z,66.41
2023-10-19T18:10:09.731Z,66.68
2023-10-19T18:12:39.173Z,66.56
2023-10-19T18:15:09.147Z,66.34
2023-10-19T18:17:36.579Z,66.69
2023-10-19T18:20:08.908Z,66.83
2023-10-19T18:22:38.832Z,66.92
2023-10-19T18:25:06.093Z,66.94
2023-10-19T18:27:32.546Z,67.39
2023-10-19T18:30:00.044Z,67.61
2023-10-19T18:32:27.211Z,67.38
2023-10-19T18:34:53.710Z,67.00
2023-10-19T18:37:20.310Z,66.70
2023-10-19T18:39:46.821Z,66.93
2023-10-19T18:42:13.637Z,67.04
2023-10-19T18:44:40.074Z,66.91
2023-10-19T18:47:06.546Z,66.93
2023-10-19T18:49:33.234Z,66.95
2023-10-19T18:51:59.712Z,67.01
2023-10-19T18:54:26.902Z,66.95
2023-10-19T18:56:53.369Z,67.50
2023-10-19T18:59:19.851Z,67.78
2023-10-19T19:01:46.587Z,67.71
2023-10-19T19:04:12.956Z,67.77
2023-10-19T19:06:40.050Z,67.64
2023-10-19T19:09:06.501Z,68.00
2023-10-19T19:11:32.940Z,67.96
2023-10-19T19:13:59.400Z,68.30
2023-10-19T19:16:26.831Z,68.26
2023-10-19T19:18:53.257Z,67.82
2023-10-19T19:21:20.259Z,68.28
2023-10-19T19:23:47.910Z,67.97
2023-10-19T19:26:15.218Z,68.25
2023-10-19T19:28:44.229Z,68.32
2023-10-19T19:31:19.470Z,68.38
2023-10-19T19:33:49.533Z,68.69
2023-10-19T19:36:18.951Z,68.59
2023-10-19T19:38:46.573Z,68.63
2023-10-19T19:41:16.752Z,68.71
2023-10-19T19:43:44.379Z,68.71
2023-10-19T19:46:10.884Z,69.13
2023-10-19T19:48:37.503Z,68.97
2023-10-19T19:51:05.331Z,68.85
2023-10-19T19:53:32.017Z,68.93
2023-10-19T19:55:59.330Z,68.98
2023-10-19T19:58:26.590Z,68.87
2023-10-19T20:00:53.008Z,69.02
2023-10-19T20:03:19.530Z,69.05
2023-10-19T20:05:46.117Z,69.46
2023-10-19T20:08:12.795Z,69.67
2023-10-19T20:10:44.565Z,69.49
2023-10-19T20:13:15.466Z,69.74
2023-10-19T20:15:42.777Z,70.26
2023-10-19T20:18:10.187Z,70.25
2023-10-19T20:20:36.789Z,70.13
2023-10-19T20:23:03.469Z,70.15
2023-10-19T20:25:30.226Z,70.24
2023-10-19T20:27:58.124Z,70.07
2023-10-19T20:30:25.445Z,70.13
2023-10-19T20:32:53.225Z,70.23
2023-10-19T20:35:21.793Z,70.10
2023-10-19T20:37:49.235Z,70.02
2023-10-19T20:40:22.459Z,69.85
2023-10-19T20:42:55.396Z,69.86
2023-10-19T20:45:23.368Z,69.83
2023-10-19T20:47:52.921Z,69.78
2023-10-19T20:50:23.350Z,69.81
2023-10-19T20:52:55.545Z,69.91
2023-10-19T20:55:21.969Z,70.04
2023-10-19T20:57:48.740Z,70.27
2023-10-19T21:00:15.564Z,70.43
2023-10-19T21:02:42.925Z,70.57
2023-10-19T21:05:13.517Z,70.87
2023-10-19T21:07:40.205Z,70.96
2023-10-19T21:10:13.102Z,70.77
2023-10-19T21:12:40.579Z,70.87
2023-10-19T21:15:13.867Z,70.83
2023-10-19T21:17:49.393Z,70.89
2023-10-19T21:20:17.118Z,70.78
2023-10-19T21:22:44.806Z,70.94
2023-10-19T21:25:17.274Z,70.80
2023-10-19T21:27:45.237Z,70.98
2023-10-19T21:30:14.324Z,70.85
2023-10-19T21:32:42.920Z,70.78
2023-10-19T21:35:10.571Z,70.82
2023-10-19T21:37:37.546Z,70.35
2023-10-19T21:40:05.635Z,70.28
2023-10-19T21:42:32.836Z,70.09
2023-10-19T21:44:59.285Z,70.20
2023-10-19T21:47:27.012Z,70.04
2023-10-19T21:49:53.846Z,70.01
2023-10-19T21:52:24.890Z,70.12
2023-10-19T21:54:52.084Z,70.28
2023-10-19T21:57:19.095Z,70.59
2023-10-19T21:59:46.266Z,70.55
2023-10-19T22:02:12.965Z,70.74
2023-10-19T22:04:40.818Z,70.57
2023-10-19T22:07:07.459Z,70.68
2023-10-19T22:09:34.586Z,70.54
2023-10-19T22:12:01.654Z,70.73
2023-10-19T22:14:29.398Z,70.59
2023-10-19T22:16:56.860Z,70.54
2023-10-19T22:19:27.874Z,70.18
2023-10-19T22:21:57.116Z,70.35
2023-10-19T22:24:23.556Z,70.50
2023-10-19T22:26:56.521Z,70.72
2023-10-19T22:29:23.167Z,70.81
2023-10-19T22:31:52.816Z,70.88
2023-10-19T22:34:19.854Z,71.03
2023-10-19T22:36:46.405Z,71.17
2023-10-19T22:39:13.564Z,71.22
2023-10-19T22:41:40.027Z,70.86
2023-10-19T22:44:08.186Z,71.25
2023-10-19T22:46:39.769Z,71.20
2023-10-19T22:49:06.706Z,71.48
2023-10-19T22:51:33.183Z,71.48
2023-10-19T22:53:59.934Z,71.39
2023-10-19T22:56:26.411Z,71.13
2023-10-19T22:58:54.148Z,71.13
2023-10-19T23:01:21.130Z,71.04
2023-10-19T23:03:47.881Z,70.95
2023-10-19T23:06:15.223Z,71.10
2023-10-19T23:08:42.150Z,71.25
2023-10-19T23:11:10.331Z,71.15
2023-10-19T23:13:39.285Z,70.96
2023-10-19T23:16:07.028Z,70.78
2023-10-19T23:18:36.975Z,70.38
2023-10-19T23:21:04.970Z,70.56
2023-10-19T23:23:32.330Z,70.56
2023-10-19T23:26:01.814Z,70.76
2023-10-19T23:28:31.844Z,70.42
2023-10-19T23:31:06.085Z,70.39
2023-10-19T23:33:33.516Z,70.26
2023-10-19T23:36:00.758Z,70.16
2023-10-19T23:38:27.629Z,70.25
2023-10-19T23:40:54.318Z,70.64
2023-10-19T23:43:21.255Z,70.67
2023-10-19T23:45:48.623Z,70.42
2023-10-19T23:48:19.397Z,70.51
2023-10-19T23:50:45.805Z,70.72
2023-10-19T23:53:12.354Z,70.13
2023-10-19T23:55:41.608Z,70.38
2023-10-19T23:58:08.135Z,70.27
